createdAt,value
2022-09-20T00:01:25.849Z,99050.00
2022-09-20T00:03:57.445Z,99057.72
2022-09-20T00:06:26.561Z,99056.06
2022-09-20T00:08:53.677Z,99062.13
2022-09-20T00:11:22.518Z,99064.63
2022-09-20T00:13:50.516Z,99062.88
2022-09-20T00:16:22.754Z,99068.00
2022-09-20T00:18:53.555Z,99067.19
2022-09-20T00:21:22.399Z,99065.47
2022-09-20T00:23:49.377Z,99062.94
2022-09-20T00:26:17.612Z,99052.69
2022-09-20T00:28:44.827Z,99065.50
2022-09-20T00:31:12.131Z,99061.31
2022-09-20T00:33:57.542Z,99055.22
2022-09-20T00:36:24.656Z,99059.56
2022-09-20T00:39:07.480Z,99060.41
2022-09-20T00:41:34.535Z,99070.75
2022-09-20T00:44:02.996Z,99064.78
2022-09-20T00:46:37.774Z,99061.38
2022-09-20T00:49:17.160Z,99061.38
2022-09-20T00:51:47.285Z,99060.50
2022-09-20T00:54:19.988Z,99068.22
2022-09-20T00:56:47.386Z,99067.38
2022-09-20T00:59:18.565Z,99060.50
2022-09-20T01:01:47.425Z,99046.78
2022-09-20T01:04:14.615Z,99059.66
2022-09-20T01:06:43.371Z,99057.03
2022-09-20T01:09:10.974Z,99047.75
2022-09-20T01:11:37.863Z,99055.41
2022-09-20T01:14:04.947Z,99049.50
2022-09-20T01:16:32.100Z,99056.34
2022-09-20T01:18:59.306Z,99045.31
2022-09-20T01:21:26.696Z,99057.19
2022-09-20T01:24:00.729Z,99060.66
2022-09-20T01:26:47.387Z,99048.72
2022-09-20T01:30:02.361Z,99064.19
2022-09-20T01:32:58.640Z,99046.19
2022-09-20T01:35:25.632Z,99044.47
2022-09-20T01:38:05.543Z,99059.00
2022-09-20T01:40:41.591Z,99056.47
2022-09-20T01:43:17.092Z,99041.09
2022-09-20T01:45:49.101Z,99057.34
2022-09-20T01:48:25.208Z,99047.84
2022-09-20T01:51:25.971Z,99045.34
2022-09-20T01:54:21.017Z,99049.72
2022-09-20T01:56:54.068Z,99050.66
2022-09-20T01:59:46.573Z,99052.31
2022-09-20T02:02:38.426Z,99062.63
2022-09-20T02:05:43.461Z,99063.53
2022-09-20T02:08:30.244Z,99064.38
2022-09-20T02:11:29.544Z,99055.88
2022-09-20T02:14:21.496Z,99062.72
2022-09-20T02:16:58.319Z,99063.56
2022-09-20T02:19:40.941Z,99059.25
2022-09-20T02:22:32.062Z,99059.25
2022-09-20T02:25:17.565Z,99065.31
2022-09-20T02:28:05.914Z,99057.53
2022-09-20T02:30:51.654Z,99058.44
2022-09-20T02:33:33.030Z,99056.72
2022-09-20T02:36:04.959Z,99062.72
2022-09-20T02:38:59.672Z,99061.81
2022-09-20T02:41:56.015Z,99064.50
2022-09-20T02:44:30.723Z,99067.03
2022-09-20T02:47:21.252Z,99070.47
2022-09-20T02:50:25.330Z,99073.97
2022-09-20T02:53:15.689Z,99068.81
2022-09-20T02:55:59.250Z,99067.09
2022-09-20T02:58:44.839Z,99060.28
2022-09-20T03:01:17.601Z,99073.97
2022-09-20T03:03:51.682Z,99073.97
2022-09-20T03:06:48.623Z,99066.25
2022-09-20T03:09:33.806Z,99068.81
2022-09-20T03:12:07.316Z,99062.00
2022-09-20T03:14:40.876Z,99067.03
2022-09-20T03:17:42.648Z,99068.81
2022-09-20T03:20:38.980Z,99047.56
2022-09-20T03:23:15.241Z,99072.28
2022-09-20T03:26:03.227Z,99083.38
2022-09-20T03:28:54.888Z,99085.94
2022-09-20T03:31:49.979Z,99069.72
2022-09-20T03:34:40.097Z,99074.81
2022-09-20T03:37:14.127Z,99078.19
2022-09-20T03:40:09.888Z,99070.50
2022-09-20T03:42:38.513Z,99082.50
2022-09-20T03:45:23.940Z,99080.75
2022-09-20T03:48:23.113Z,99074.72
2022-09-20T03:51:01.094Z,99073.09
2022-09-20T03:53:54.372Z,99073.94
2022-09-20T03:56:24.400Z,99075.63
2022-09-20T03:59:24.977Z,99075.63
2022-09-20T04:02:29.452Z,99077.38
2022-09-20T04:04:58.024Z,99091.41
2022-09-20T04:07:43.666Z,99095.53
2022-09-20T04:10:22.704Z,99096.31
2022-09-20T04:13:09.268Z,99099.72
2022-09-20T04:16:05.240Z,99104.03
2022-09-20T04:18:57.730Z,99110.06
2022-09-20T04:21:24.709Z,99112.63
2022-09-20T04:24:12.220Z,99112.59
2022-09-20T04:26:43.491Z,99103.16
2022-09-20T04:29:38.087Z,99107.47
2022-09-20T04:32:12.346Z,99113.50
2022-09-20T04:35:02.725Z,99105.78
2022-09-20T04:37:35.352Z,99099.03
2022-09-20T04:40:11.096Z,99122.09
2022-09-20T04:42:56.331Z,99110.06
2022-09-20T04:45:29.038Z,99117.81
2022-09-20T04:48:20.355Z,99124.69
2022-09-20T04:51:09.352Z,99117.84
2022-09-20T04:54:10.396Z,99120.41
2022-09-20T04:57:11.393Z,99116.97
2022-09-20T04:59:41.437Z,99107.53
2022-09-20T05:02:24.495Z,99120.44
2022-09-20T05:05:20.649Z,99121.22
2022-09-20T05:08:14.538Z,99118.66
2022-09-20T05:10:49.579Z,99120.41
2022-09-20T05:13:28.287Z,99123.78
2022-09-20T05:16:40.788Z,99121.25
2022-09-20T05:19:54.698Z,99123.84
2022-09-20T05:22:50.068Z,99126.41
2022-09-20T05:25:38.534Z,99129.00
2022-09-20T05:28:14.562Z,99139.28
2022-09-20T05:30:56.327Z,99136.69
2022-09-20T05:33:41.803Z,99135.84
2022-09-20T05:36:17.603Z,99137.53
2022-09-20T05:38:52.010Z,99145.25
2022-09-20T05:41:34.207Z,99145.28
2022-09-20T05:44:20.012Z,99147.00
2022-09-20T05:47:02.020Z,99150.44
2022-09-20T05:49:37.984Z,99150.41
2022-09-20T05:52:10.782Z,99151.28
2022-09-20T05:54:50.803Z,99149.56
2022-09-20T05:57:56.595Z,99153.91
2022-09-20T06:00:27.959Z,99155.59
2022-09-20T06:03:17.632Z,99158.09
2022-09-20T06:05:53.576Z,99152.94
2022-09-20T06:08:51.479Z,99153.78
2022-09-20T06:11:55.678Z,99156.38
2022-09-20T06:14:32.966Z,99157.19
2022-09-20T06:17:24.337Z,99158.00
2022-09-20T06:20:13.133Z,99163.09
2022-09-20T06:22:43.058Z,99144.31
2022-09-20T06:25:09.923Z,99158.75
2022-09-20T06:27:43.447Z,99150.16
2022-09-20T06:30:49.469Z,99169.94
2022-09-20T06:33:18.430Z,99162.22
2022-09-20T06:36:38.273Z,99163.00
2022-09-20T06:39:49.795Z,99167.28
2022-09-20T06:42:16.778Z,99168.13
2022-09-20T06:44:43.894Z,99174.97
2022-09-20T06:47:11.147Z,99172.34
2022-09-20T06:49:39.611Z,99161.22
2022-09-20T06:52:07.293Z,99168.91
2022-09-20T06:54:34.240Z,99168.06
2022-09-20T06:57:03.509Z,99175.66
2022-09-20T06:59:30.502Z,99168.06
2022-09-20T07:01:57.507Z,99177.41
2022-09-20T07:04:25.023Z,99190.19
2022-09-20T07:06:54.136Z,99191.88
2022-09-20T07:09:22.276Z,99178.16
2022-09-20T07:11:49.319Z,99194.44
2022-09-20T07:14:16.317Z,99183.22
2022-09-20T07:16:43.282Z,99202.94
2022-09-20T07:19:10.454Z,99207.28
2022-09-20T07:21:37.696Z,99209.84
2022-09-20T07:24:04.728Z,99213.22
2022-09-20T07:26:32.040Z,99216.69
2022-09-20T07:28:59.668Z,99205.53
2022-09-20T07:31:27.864Z,99214.94
2022-09-20T07:33:54.921Z,99219.25
2022-09-20T07:36:21.919Z,99226.03
2022-09-20T07:38:50.702Z,99208.88
2022-09-20T07:41:20.611Z,99228.59
2022-09-20T07:43:47.746Z,99218.19
2022-09-20T07:46:14.721Z,99226.75
2022-09-20T07:48:41.768Z,99232.75
2022-09-20T07:51:11.117Z,99220.72
2022-09-20T07:53:38.456Z,99230.94
2022-09-20T07:56:07.152Z,99215.56
2022-09-20T07:58:38.120Z,99244.56
2022-09-20T08:01:09.882Z,99217.09
2022-09-20T08:03:37.126Z,99239.25
2022-09-20T08:06:11.266Z,99235.78
2022-09-20T08:08:43.695Z,99236.63
2022-09-20T08:11:12.955Z,99249.44
2022-09-20T08:16:32.297Z,99250.19
2022-09-20T08:19:01.779Z,99248.47
2022-09-20T08:21:31.697Z,99260.44
2022-09-20T08:23:58.865Z,99255.28
2022-09-20T08:26:26.953Z,99249.22
2022-09-20T08:28:55.390Z,99253.47
2022-09-20T08:31:24.418Z,99251.78
2022-09-20T08:33:54.560Z,99250.91
2022-09-20T08:36:24.744Z,99253.41
2022-09-20T08:41:51.549Z,99249.09
2022-09-20T08:44:47.331Z,99244.88
2022-09-20T08:47:28.070Z,99260.28
2022-09-20T08:49:58.173Z,99256.81
2022-09-20T08:52:39.646Z,99260.25
2022-09-20T08:55:17.200Z,99261.91
2022-09-20T08:57:53.351Z,99248.34
2022-09-20T09:00:21.807Z,99263.59
2022-09-20T09:02:50.944Z,99253.31
2022-09-20T09:05:44.474Z,99269.63
2022-09-20T09:08:17.293Z,99263.69
2022-09-20T09:10:54.902Z,99258.44
2022-09-20T09:13:33.087Z,99258.38
2022-09-20T09:16:02.967Z,99257.50
2022-09-20T09:18:35.515Z,99261.78
2022-09-20T09:21:05.681Z,99260.03
2022-09-20T09:23:41.593Z,99260.84
2022-09-20T09:26:23.206Z,99254.88
2022-09-20T09:29:08.606Z,99254.81
2022-09-20T09:31:38.864Z,99260.00
2022-09-20T09:34:10.214Z,99250.53
2022-09-20T09:36:43.895Z,99257.28
2022-09-20T09:39:18.941Z,99255.97
2022-09-20T09:41:46.588Z,99238.66
2022-09-20T09:44:27.848Z,99258.16
2022-09-20T09:46:55.643Z,99251.28
2022-09-20T09:49:24.018Z,99251.25
2022-09-20T09:52:02.943Z,99245.94
2022-09-20T09:54:35.789Z,99234.91
2022-09-20T09:57:24.374Z,99257.13
2022-09-20T10:00:06.098Z,99251.09
2022-09-20T10:02:50.088Z,99251.03
2022-09-20T10:05:39.754Z,99241.50
2022-09-20T10:08:12.350Z,99248.38
2022-09-20T10:10:54.415Z,99248.34
2022-09-20T10:13:29.381Z,99254.34
2022-09-20T10:16:13.624Z,99223.50
2022-09-20T10:19:19.457Z,99244.88
2022-09-20T10:22:03.828Z,99246.59
2022-09-20T10:24:59.670Z,99245.69
2022-09-20T10:27:36.110Z,99246.50
2022-09-20T10:30:26.053Z,99230.16
2022-09-20T10:33:04.554Z,99238.59
2022-09-20T10:35:52.625Z,99233.41
2022-09-20T10:38:28.284Z,99232.50
2022-09-20T10:41:31.316Z,99222.16
2022-09-20T10:44:11.851Z,99221.31
2022-09-20T10:46:51.826Z,99224.63
2022-09-20T10:49:33.327Z,99228.00
2022-09-20T10:52:22.208Z,99229.66
2022-09-20T10:54:56.582Z,99221.91
2022-09-20T10:57:39.703Z,99220.81
2022-09-20T11:00:09.352Z,99228.47
2022-09-20T11:03:03.181Z,99228.31
2022-09-20T11:05:31.295Z,99216.13
2022-09-20T11:08:14.293Z,99217.69
2022-09-20T11:10:43.186Z,99225.34
2022-09-20T11:13:30.842Z,99223.25
2022-09-20T11:16:36.767Z,99225.75
2022-09-20T11:19:17.466Z,99211.88
2022-09-20T11:22:05.232Z,99219.28
2022-09-20T11:24:43.893Z,99214.78
2022-09-20T11:27:27.195Z,99207.81
2022-09-20T11:30:04.447Z,99224.00
2022-09-20T11:32:53.340Z,99211.00
2022-09-20T11:35:29.911Z,99185.31
2022-09-20T11:38:02.974Z,99217.63
2022-09-20T11:40:35.474Z,99193.63
2022-09-20T11:43:06.340Z,99197.66
2022-09-20T11:45:34.572Z,99201.06
2022-09-20T11:48:10.460Z,99205.88
2022-09-20T11:50:52.505Z,99213.63
2022-09-20T11:53:22.334Z,99209.31
2022-09-20T11:55:59.149Z,99219.34
2022-09-20T11:58:27.571Z,99213.28
2022-09-20T12:00:56.718Z,99214.75
2022-09-20T12:03:38.328Z,99205.38
2022-09-20T12:06:08.531Z,99214.56
2022-09-20T12:08:37.323Z,99210.16
2022-09-20T12:11:06.484Z,99205.75
2022-09-20T12:13:40.979Z,99203.84
2022-09-20T12:16:17.468Z,99212.31
2022-09-20T12:19:05.585Z,99183.25
2022-09-20T12:21:32.782Z,99213.75
2022-09-20T12:24:07.435Z,99188.91
2022-09-20T12:26:37.652Z,99215.22
2022-09-20T12:29:31.478Z,99223.00
2022-09-20T12:32:01.879Z,99212.91
2022-09-20T12:34:34.686Z,99229.00
2022-09-20T12:37:01.675Z,99243.00
2022-09-20T12:39:36.159Z,99229.47
2022-09-20T12:42:23.295Z,99251.03
2022-09-20T12:44:50.259Z,99271.00
2022-09-20T12:47:29.717Z,99261.66
2022-09-20T12:50:16.167Z,99270.34
2022-09-20T12:53:04.265Z,99273.22
2022-09-20T12:56:03.711Z,99284.63
2022-09-20T12:58:51.629Z,99271.19
2022-09-20T13:01:18.599Z,99284.94
2022-09-20T13:03:47.063Z,99281.56
2022-09-20T13:06:24.294Z,99287.78
2022-09-20T13:09:03.132Z,99286.09
2022-09-20T13:11:31.446Z,99287.97
2022-09-20T13:14:19.010Z,99274.34
2022-09-20T13:17:07.392Z,99283.94
2022-09-20T13:19:44.949Z,99282.31
2022-09-20T13:22:21.462Z,99282.31
2022-09-20T13:24:49.150Z,99277.34
2022-09-20T13:27:35.657Z,99264.47
2022-09-20T13:30:32.889Z,99276.63
2022-09-20T13:33:25.113Z,99272.34
2022-09-20T13:35:54.730Z,99275.84
2022-09-20T13:38:25.166Z,99275.88
2022-09-20T13:40:52.484Z,99257.16
2022-09-20T13:43:31.854Z,99269.09
2022-09-20T13:46:00.361Z,99268.34
2022-09-20T13:48:27.977Z,99276.91
2022-09-20T13:50:55.419Z,99277.81
2022-09-20T13:53:40.554Z,99272.66
2022-09-20T13:56:26.097Z,99275.41
2022-09-20T13:58:53.250Z,99272.00
2022-09-20T14:01:34.101Z,99268.59
2022-09-20T14:04:07.407Z,99267.78
2022-09-20T14:06:37.012Z,99274.81
2022-09-20T14:09:10.797Z,99279.09
2022-09-20T14:11:38.353Z,99276.56
2022-09-20T14:14:08.083Z,99281.00
2022-09-20T14:16:39.713Z,99273.25
2022-09-20T14:19:08.253Z,99285.31
2022-09-20T14:21:35.968Z,99279.31
2022-09-20T14:24:07.843Z,99269.06
2022-09-20T14:26:36.512Z,99269.97
2022-09-20T14:29:28.768Z,99276.91
2022-09-20T14:31:55.874Z,99274.41
2022-09-20T14:34:22.875Z,99281.28
2022-09-20T14:36:50.045Z,99282.19
2022-09-20T14:39:19.102Z,99278.84
2022-09-20T14:41:46.706Z,99286.56
2022-09-20T14:44:33.475Z,99279.72
2022-09-20T14:47:00.644Z,99283.22
2022-09-20T14:49:27.479Z,99278.06
2022-09-20T14:51:54.900Z,99272.06
2022-09-20T14:54:30.113Z,99278.13
2022-09-20T14:56:58.257Z,99269.53
2022-09-20T14:59:30.452Z,99271.38
2022-09-20T15:02:14.670Z,99272.25
2022-09-20T15:04:42.404Z,99271.41
2022-09-20T15:07:13.111Z,99272.31
2022-09-20T15:09:41.064Z,99267.13
2022-09-20T15:12:17.330Z,99268.91
2022-09-20T15:14:44.457Z,99278.38
2022-09-20T15:17:16.029Z,99278.41
2022-09-20T15:19:42.986Z,99257.81
2022-09-20T15:22:10.383Z,99265.63
2022-09-20T15:24:37.524Z,99275.91
2022-09-20T15:27:05.014Z,99276.78
2022-09-20T15:29:32.118Z,99275.09
2022-09-20T15:31:59.017Z,99269.94
2022-09-20T15:34:26.125Z,99280.31
2022-09-20T15:36:54.366Z,99270.06
2022-09-20T15:39:22.505Z,99282.97
2022-09-20T15:41:52.374Z,99283.84
2022-09-20T15:44:19.335Z,99284.75
2022-09-20T15:46:46.734Z,99291.66
2022-09-20T15:49:13.779Z,99286.63
2022-09-20T15:51:40.726Z,99289.13
2022-09-20T15:54:07.879Z,99278.06
2022-09-20T15:56:36.374Z,99293.50
2022-09-20T15:59:07.954Z,99296.97
2022-09-20T16:01:39.969Z,99296.16
2022-09-20T16:04:11.183Z,99292.72
2022-09-20T16:06:38.973Z,99285.88
2022-09-20T16:09:06.304Z,99290.22
2022-09-20T16:11:33.295Z,99283.44
2022-09-20T16:14:00.583Z,99281.69
2022-09-20T16:16:29.291Z,99290.28
2022-09-20T16:19:14.633Z,99298.06
2022-09-20T16:21:42.720Z,99288.72
2022-09-20T16:24:09.937Z,99301.66
2022-09-20T16:26:37.441Z,99304.28
2022-09-20T16:29:07.589Z,99304.41
2022-09-20T16:31:41.598Z,99313.00
2022-09-20T16:34:24.039Z,99313.94
2022-09-20T16:36:52.487Z,99321.75
2022-09-20T16:39:19.699Z,99322.63
2022-09-20T16:41:48.094Z,99306.44
2022-09-20T16:44:15.495Z,99327.03
2022-09-20T16:46:42.481Z,99325.38
2022-09-20T16:49:11.003Z,99343.50
2022-09-20T16:51:39.724Z,99346.16
2022-09-20T16:54:12.650Z,99349.63
2022-09-20T16:56:45.173Z,99342.94
2022-09-20T16:59:16.064Z,99349.91
2022-09-20T17:01:43.297Z,99361.03
2022-09-20T17:04:10.627Z,99355.97
2022-09-20T17:06:38.128Z,99368.03
2022-09-20T17:09:05.863Z,99380.16
2022-09-20T17:11:44.746Z,99380.19
2022-09-20T17:14:12.146Z,99382.84
2022-09-20T17:16:40.226Z,99386.31
2022-09-20T17:19:08.712Z,99384.66
2022-09-20T17:21:37.369Z,99389.84
2022-09-20T17:24:06.707Z,99393.31
2022-09-20T17:26:36.917Z,99389.94
2022-09-20T17:29:06.709Z,99392.63
2022-09-20T17:31:35.159Z,99397.81
2022-09-20T17:34:04.184Z,99390.94
2022-09-20T17:36:52.027Z,99394.47
2022-09-20T17:39:19.000Z,99384.22
2022-09-20T17:41:47.699Z,99397.97
2022-09-20T17:44:18.180Z,99403.16
2022-09-20T17:46:49.709Z,99394.72
2022-09-20T17:49:18.435Z,99411.00
2022-09-20T17:51:46.907Z,99413.66
2022-09-20T17:54:14.429Z,99424.88
2022-09-20T17:56:43.784Z,99425.75
2022-09-20T17:59:11.627Z,99410.44
2022-09-20T18:01:38.911Z,99418.97
2022-09-20T18:04:07.749Z,99425.03
2022-09-20T18:06:36.968Z,99418.16
2022-09-20T18:09:05.793Z,99407.97
2022-09-20T18:11:37.023Z,99432.00
2022-09-20T18:14:04.907Z,99429.44
2022-09-20T18:16:32.027Z,99417.59
2022-09-20T18:19:01.838Z,99420.16
2022-09-20T18:21:29.820Z,99431.31
2022-09-20T18:23:57.831Z,99431.38
2022-09-20T18:26:32.412Z,99439.09
2022-09-20T18:29:04.874Z,99408.34
2022-09-20T18:31:41.472Z,99448.66
2022-09-20T18:34:18.049Z,99450.41
2022-09-20T18:36:54.965Z,99451.31
2022-09-20T18:39:28.545Z,99449.69
2022-09-20T18:41:55.945Z,99460.00
2022-09-20T18:44:23.039Z,99465.16
2022-09-20T18:46:51.669Z,99443.78
2022-09-20T18:49:21.841Z,99463.50
2022-09-20T18:51:49.007Z,99467.84
2022-09-20T18:54:16.050Z,99478.16
2022-09-20T18:56:44.174Z,99466.16
2022-09-20T18:59:16.568Z,99483.34
2022-09-20T19:01:53.460Z,99488.53
2022-09-20T19:04:32.953Z,99485.09
2022-09-20T19:07:24.740Z,99490.31
2022-09-20T19:10:03.163Z,99475.78
2022-09-20T19:12:50.520Z,99491.22
2022-09-20T19:19:19.640Z,99481.03
2022-09-20T19:22:10.440Z,99497.28
2022-09-20T19:24:56.986Z,99505.88
2022-09-20T19:27:25.571Z,99502.47
2022-09-20T19:29:53.902Z,99500.75
2022-09-20T19:32:26.357Z,99490.50
2022-09-20T19:35:01.894Z,99503.31
2022-09-20T19:37:45.093Z,99499.88
2022-09-20T19:40:14.898Z,99503.34
2022-09-20T19:42:47.899Z,99500.78
2022-09-20T19:45:25.515Z,99505.03
2022-09-20T19:47:59.544Z,99505.91
2022-09-20T19:50:59.397Z,99503.41
2022-09-20T19:53:28.901Z,99508.53
2022-09-20T19:55:59.061Z,99499.91
2022-09-20T19:58:26.267Z,99491.34
2022-09-20T20:00:53.534Z,99499.06
2022-09-20T20:03:23.769Z,99494.78
2022-09-20T20:06:39.217Z,99505.13
2022-09-20T20:09:15.130Z,99507.72
2022-09-20T20:11:53.751Z,99512.88
2022-09-20T20:14:41.976Z,99516.34
2022-09-20T20:17:21.035Z,99522.34
2022-09-20T20:20:10.472Z,99509.47
2022-09-20T20:22:52.475Z,99514.63
2022-09-20T20:25:29.760Z,99514.66
2022-09-20T20:27:56.719Z,99516.38
2022-09-20T20:30:24.655Z,99513.81
2022-09-20T20:32:58.191Z,99509.50
2022-09-20T20:35:26.209Z,99520.72
2022-09-20T20:37:53.937Z,99513.84
2022-09-20T20:40:22.586Z,99521.56
2022-09-20T20:42:49.937Z,99525.03
2022-09-20T20:45:19.770Z,99526.75
2022-09-20T20:47:48.803Z,99528.50
2022-09-20T20:50:15.873Z,99537.97
2022-09-20T20:52:42.980Z,99524.22
2022-09-20T20:55:10.878Z,99523.34
2022-09-20T20:57:38.180Z,99520.81
2022-09-20T21:00:05.606Z,99528.53
2022-09-20T21:02:32.632Z,99525.16
2022-09-20T21:04:59.557Z,99534.63
2022-09-20T21:07:26.503Z,99544.94
2022-09-20T21:09:53.988Z,99529.50
2022-09-20T21:12:21.342Z,99543.22
2022-09-20T21:14:48.267Z,99538.06
2022-09-20T21:17:16.411Z,99541.53
2022-09-20T21:19:43.430Z,99532.97
2022-09-20T21:22:10.378Z,99537.28
2022-09-20T21:24:37.648Z,99526.97
2022-09-20T21:27:04.855Z,99539.84
2022-09-20T21:29:32.015Z,99536.44
2022-09-20T21:31:58.948Z,99537.28
2022-09-20T21:34:25.983Z,99542.44
2022-09-20T21:36:52.908Z,99540.75
2022-09-20T21:39:19.938Z,99533.91
2022-09-20T21:41:47.628Z,99535.63
2022-09-20T21:44:15.106Z,99539.91
2022-09-20T21:46:42.243Z,99541.66
2022-09-20T21:49:11.101Z,99550.25
2022-09-20T21:51:39.419Z,99539.97
2022-09-20T21:54:06.543Z,99540.00
2022-09-20T21:56:35.322Z,99532.28
2022-09-20T21:59:04.164Z,99539.13
2022-09-20T22:01:35.521Z,99538.28
2022-09-20T22:04:09.745Z,99551.19
2022-09-20T22:06:38.583Z,99552.03
2022-09-20T22:09:10.034Z,99540.91
2022-09-20T22:11:40.082Z,99552.03
2022-09-20T22:14:07.332Z,99540.91
2022-09-20T22:16:35.955Z,99551.19
2022-09-20T22:19:02.901Z,99563.25
2022-09-20T22:21:31.539Z,99560.69
2022-09-20T22:24:00.933Z,99559.81
2022-09-20T22:26:35.211Z,99561.50
2022-09-20T22:29:02.359Z,99546.94
2022-09-20T22:31:30.563Z,99558.94
2022-09-20T22:33:59.897Z,99556.38
2022-09-20T22:36:31.378Z,99533.25
2022-09-20T22:38:58.397Z,99554.69
2022-09-20T22:41:25.519Z,99557.25
2022-09-20T22:43:52.523Z,99554.69
2022-09-20T22:46:21.361Z,99553.81
2022-09-20T22:48:48.419Z,99552.13
2022-09-20T22:51:27.745Z,99559.84
2022-09-20T22:53:54.669Z,99540.13
2022-09-20T22:56:23.097Z,99558.09
2022-09-20T22:58:54.274Z,99542.72
2022-09-20T23:01:22.456Z,99568.41
2022-09-20T23:04:01.089Z,99571.00
2022-09-20T23:06:31.811Z,99571.84
2022-09-20T23:09:00.177Z,99568.44
2022-09-20T23:11:27.637Z,99571.00
2022-09-20T23:13:59.597Z,99571.00
2022-09-20T23:16:29.776Z,99577.03
2022-09-20T23:18:57.567Z,99583.03
2022-09-20T23:21:24.608Z,99567.59
2022-09-20T23:24:02.171Z,99585.59
2022-09-20T23:26:30.771Z,99587.31
2022-09-20T23:29:02.031Z,99591.59
2022-09-20T23:31:38.184Z,99588.19
2022-09-20T23:34:06.348Z,99591.59
2022-09-20T23:36:35.248Z,99592.47
2022-09-20T23:39:02.254Z,99579.63
2022-09-20T23:41:29.235Z,99574.47
2022-09-20T23:43:56.177Z,99596.75
2022-09-20T23:46:24.958Z,99595.03
2022-09-20T23:48:52.296Z,99584.78
2022-09-20T23:51:24.394Z,99604.47
2022-09-20T23:53:53.313Z,99594.19
2022-09-20T23:56:20.959Z,99601.03
2022-09-20T23:58:48.773Z,99602.78
